Time;durP1;ratioP1;P1;durP2;ratioP2;P2;SDS_P1;SDS_P2;PMS_P1;PMS_P2;Temp;Humidity;BMP_temperature;BMP_pressure;BME280_temperature;BME280_humidity;BME280_pressure;Samples;Min_cycle;Max_cycle;Signal;HPM_P1;HPM_P2
2022/07/09 00:01:35;;;;;;;2.13;1.17;;;;;;;;;;4976357;28;20101;-86
2022/07/09 00:04:00;;;;;;;1.27;0.85;;;;;;;;;;4975808;28;20100;-87
2022/07/09 00:06:26;;;;;;;0.30;0.28;;;;;;;;;;4976031;28;20042;-90
2022/07/09 00:08:53;;;;;;;0.75;0.70;;;;;;;;;;4980754;28;20069;-90
2022/07/09 00:11:19;;;;;;;0.77;0.75;;;;;;;;;;4975890;28;20030;-87
2022/07/09 00:13:47;;;;;;;0.57;0.55;;;;;;;;;;4980120;28;20061;-88
2022/07/09 00:16:12;;;;;;;1.00;0.85;;;;;;;;;;4977930;28;20097;-89
2022/07/09 00:18:38;;;;;;;0.60;0.60;;;;;;;;;;4976282;28;20476;-88
2022/07/09 00:21:03;;;;;;;1.15;0.47;;;;;;;;;;4977036;28;20365;-90
2022/07/09 00:23:29;;;;;;;0.40;0.40;;;;;;;;;;4976506;28;20023;-83
2022/07/09 00:25:54;;;;;;;0.32;0.32;;;;;;;;;;4974664;28;20023;-89
2022/07/09 00:28:22;;;;;;;0.40;0.28;;;;;;;;;;4975326;28;20027;-86
2022/07/09 00:30:47;;;;;;;0.77;0.77;;;;;;;;;;4976287;28;20034;-88
2022/07/09 00:33:13;;;;;;;1.15;0.95;;;;;;;;;;4977413;28;20030;-89
2022/07/09 00:35:38;;;;;;;0.43;0.40;;;;;;;;;;4980019;28;20034;-89
2022/07/09 00:38:03;;;;;;;0.63;0.60;;;;;;;;;;4975579;28;20395;-90
2022/07/09 00:40:29;;;;;;;0.75;0.75;;;;;;;;;;4975074;28;20035;-82
2022/07/09 00:42:54;;;;;;;1.08;0.75;;;;;;;;;;4974103;28;20031;-86
2022/07/09 00:45:22;;;;;;;0.28;0.28;;;;;;;;;;4975252;28;20026;-88
2022/07/09 00:47:47;;;;;;;2.08;0.90;;;;;;;;;;4974617;28;20034;-88
2022/07/09 00:50:13;;;;;;;3.03;1.13;;;;;;;;;;4975312;28;20446;-89
2022/07/09 00:52:40;;;;;;;0.68;0.68;;;;;;;;;;4973714;28;20042;-88
2022/07/09 00:55:07;;;;;;;1.42;1.13;;;;;;;;;;4973506;28;20022;-85
2022/07/09 00:57:35;;;;;;;2.45;0.60;;;;;;;;;;4974117;28;20030;-86
2022/07/09 01:00:00;;;;;;;2.10;1.10;;;;;;;;;;4956751;28;20023;-87
2022/07/09 01:02:28;;;;;;;0.93;0.90;;;;;;;;;;4974393;28;20038;-83
2022/07/09 01:04:58;;;;;;;0.88;0.65;;;;;;;;;;4972232;28;20038;-88
2022/07/09 01:07:27;;;;;;;1.33;0.60;;;;;;;;;;4974968;28;20035;-89
2022/07/09 01:09:52;;;;;;;1.00;0.73;;;;;;;;;;4955818;28;20035;-89
2022/07/09 01:12:19;;;;;;;0.40;0.40;;;;;;;;;;4967745;28;20046;-86
2022/07/09 01:14:47;;;;;;;5.57;0.75;;;;;;;;;;4972923;28;20050;-87
2022/07/09 01:17:16;;;;;;;1.02;0.98;;;;;;;;;;4977404;28;20505;-88
2022/07/09 01:19:41;;;;;;;1.45;0.55;;;;;;;;;;4975839;28;20035;-87
2022/07/09 01:22:07;;;;;;;0.50;0.50;;;;;;;;;;4974468;28;20033;-87
2022/07/09 01:24:33;;;;;;;2.47;0.77;;;;;;;;;;4974072;28;20034;-89
2022/07/09 01:27:01;;;;;;;1.92;1.65;;;;;;;;;;4973261;28;20023;-85
2022/07/09 01:29:29;;;;;;;0.30;0.30;;;;;;;;;;4974171;28;20034;-87
2022/07/09 01:31:55;;;;;;;1.48;0.75;;;;;;;;;;4973762;28;20121;-89
2022/07/09 01:34:20;;;;;;;0.60;0.55;;;;;;;;;;4974536;28;20023;-89
2022/07/09 01:36:45;;;;;;;0.90;0.88;;;;;;;;;;4974570;28;20065;-86
2022/07/09 01:39:11;;;;;;;0.68;0.57;;;;;;;;;;4977319;28;20465;-89
2022/07/09 01:41:40;;;;;;;0.40;0.30;;;;;;;;;;4980427;28;20050;-90
2022/07/09 01:44:08;;;;;;;0.55;0.55;;;;;;;;;;4980079;28;20022;-90
2022/07/09 01:46:36;;;;;;;2.20;0.80;;;;;;;;;;4975089;28;20065;-88
2022/07/09 01:49:04;;;;;;;0.57;0.52;;;;;;;;;;4976332;28;20037;-86
2022/07/09 01:51:30;;;;;;;0.50;0.50;;;;;;;;;;4980125;28;20037;-85
2022/07/09 01:53:57;;;;;;;0.73;0.73;;;;;;;;;;4975052;28;20038;-85
2022/07/09 01:56:23;;;;;;;0.38;0.38;;;;;;;;;;4973481;28;20023;-84
2022/07/09 01:58:48;;;;;;;1.08;0.85;;;;;;;;;;4970940;28;20042;-89
2022/07/09 02:01:13;;;;;;;1.33;1.20;;;;;;;;;;4966368;28;20512;-84
2022/07/09 02:03:39;;;;;;;0.95;0.85;;;;;;;;;;4969819;28;20023;-87
2022/07/09 02:06:09;;;;;;;3.80;1.15;;;;;;;;;;4970986;28;20067;-84
2022/07/09 02:08:34;;;;;;;0.85;0.85;;;;;;;;;;4968644;28;20031;-89
2022/07/09 02:11:00;;;;;;;2.20;0.93;;;;;;;;;;4978182;28;20492;-87
2022/07/09 02:13:28;;;;;;;0.40;0.40;;;;;;;;;;4980251;28;20035;-88
2022/07/09 02:16:15;;;;;;;1.23;1.08;;;;;;;;;;4983311;28;20030;-91
2022/07/09 02:18:40;;;;;;;2.20;0.57;;;;;;;;;;4959760;28;20919;-90
2022/07/09 02:21:12;;;;;;;1.67;1.30;;;;;;;;;;4978261;28;20030;-87
2022/07/09 02:23:40;;;;;;;0.77;0.77;;;;;;;;;;4977107;28;20085;-85
2022/07/09 02:26:05;;;;;;;2.85;1.45;;;;;;;;;;4976372;28;20030;-86
2022/07/09 02:28:32;;;;;;;1.27;1.10;;;;;;;;;;4977094;28;20031;-86
2022/07/09 02:31:00;;;;;;;1.77;1.63;;;;;;;;;;4974713;28;20045;-85
2022/07/09 02:33:26;;;;;;;1.88;1.65;;;;;;;;;;4976675;28;20022;-88
2022/07/09 02:35:51;;;;;;;1.00;0.93;;;;;;;;;;4974590;28;20045;-87
2022/07/09 02:38:16;;;;;;;2.65;0.60;;;;;;;;;;4975993;28;20027;-87
2022/07/09 02:40:42;;;;;;;5.28;1.75;;;;;;;;;;4976164;28;20428;-84
2022/07/09 02:43:14;;;;;;;5.20;1.23;;;;;;;;;;4960146;28;20041;-88
2022/07/09 02:45:47;;;;;;;13.85;2.88;;;;;;;;;;4975336;28;20045;-87
2022/07/09 02:48:12;;;;;;;1.33;0.90;;;;;;;;;;4973531;28;20057;-88
2022/07/09 02:50:37;;;;;;;1.15;1.05;;;;;;;;;;4975790;28;20031;-87
2022/07/09 02:53:02;;;;;;;0.95;0.63;;;;;;;;;;4976265;28;20355;-89
2022/07/09 02:55:28;;;;;;;0.77;0.52;;;;;;;;;;4975584;28;20089;-87
2022/07/09 02:57:53;;;;;;;3.40;1.10;;;;;;;;;;4975892;28;20050;-87
2022/07/09 03:00:18;;;;;;;0.90;0.85;;;;;;;;;;4973322;28;20038;-89
2022/07/09 03:02:46;;;;;;;1.02;0.95;;;;;;;;;;4973642;28;20026;-87
2022/07/09 03:05:31;;;;;;;1.08;0.90;;;;;;;;;;4974398;28;20085;-87
2022/07/09 03:08:01;;;;;;;1.00;0.90;;;;;;;;;;4973032;28;20129;-89
2022/07/09 03:10:27;;;;;;;1.08;0.95;;;;;;;;;;4974720;28;20031;-86
2022/07/09 03:12:55;;;;;;;1.13;1.02;;;;;;;;;;4958760;28;20398;-90
2022/07/09 03:15:20;;;;;;;1.13;0.93;;;;;;;;;;4977540;28;20061;-85
2022/07/09 03:17:47;;;;;;;1.10;1.02;;;;;;;;;;4975157;28;20031;-84
2022/07/09 03:20:13;;;;;;;2.90;0.95;;;;;;;;;;4975657;28;20045;-90
2022/07/09 03:22:39;;;;;;;0.65;0.65;;;;;;;;;;4974400;28;20105;-87
2022/07/09 03:25:08;;;;;;;1.00;0.90;;;;;;;;;;4976255;28;20109;-87
2022/07/09 03:27:35;;;;;;;3.35;1.02;;;;;;;;;;4976042;28;20073;-79
2022/07/09 03:30:02;;;;;;;1.38;1.27;;;;;;;;;;4961711;28;20094;-87
2022/07/09 03:32:29;;;;;;;0.80;0.80;;;;;;;;;;4976157;28;20019;-84
2022/07/09 03:34:55;;;;;;;3.42;1.90;;;;;;;;;;4976236;28;20031;-86
2022/07/09 03:37:21;;;;;;;1.48;1.13;;;;;;;;;;4977279;28;20039;-86
2022/07/09 03:39:49;;;;;;;17.33;1.65;;;;;;;;;;4977230;28;20027;-87
2022/07/09 03:42:19;;;;;;;0.80;0.80;;;;;;;;;;4975680;28;20019;-88
2022/07/09 03:44:44;;;;;;;1.95;1.35;;;;;;;;;;4972108;28;20026;-87
2022/07/09 03:47:09;;;;;;;3.13;2.05;;;;;;;;;;4975996;28;20045;-86
2022/07/09 03:49:35;;;;;;;5.07;1.33;;;;;;;;;;4975354;28;20034;-86
2022/07/09 03:52:05;;;;;;;0.77;0.77;;;;;;;;;;4973366;28;20057;-86
2022/07/09 03:54:33;;;;;;;1.98;1.13;;;;;;;;;;4977148;28;20027;-86
2022/07/09 03:56:58;;;;;;;1.55;1.17;;;;;;;;;;4967578;28;20027;-86
2022/07/09 03:59:26;;;;;;;5.50;1.42;;;;;;;;;;4976780;28;20105;-85
2022/07/09 04:01:54;;;;;;;0.68;0.68;;;;;;;;;;4969015;28;20030;-86
2022/07/09 04:04:20;;;;;;;1.17;0.90;;;;;;;;;;4976572;28;20349;-84
2022/07/09 04:06:45;;;;;;;1.20;0.75;;;;;;;;;;4973681;28;20031;-84
2022/07/09 04:09:10;;;;;;;1.25;1.00;;;;;;;;;;4978220;28;20030;-85
2022/07/09 04:11:36;;;;;;;1.75;1.38;;;;;;;;;;4973500;28;20458;-84
2022/07/09 04:14:02;;;;;;;0.63;0.63;;;;;;;;;;4974602;28;20034;-85
2022/07/09 04:16:28;;;;;;;0.73;0.73;;;;;;;;;;4975112;28;20437;-85
2022/07/09 04:18:53;;;;;;;1.52;0.82;;;;;;;;;;4975425;28;20117;-84
2022/07/09 04:21:21;;;;;;;0.57;0.57;;;;;;;;;;4975353;28;20097;-83
2022/07/09 04:23:50;;;;;;;1.75;1.08;;;;;;;;;;4945723;28;20041;-83
2022/07/09 04:26:18;;;;;;;0.73;0.65;;;;;;;;;;4974167;28;20045;-84
2022/07/09 04:28:44;;;;;;;1.08;0.85;;;;;;;;;;4976699;28;20034;-86
2022/07/09 04:31:12;;;;;;;1.60;0.85;;;;;;;;;;4973673;28;20038;-84
2022/07/09 04:33:40;;;;;;;1.95;1.65;;;;;;;;;;4974843;28;20026;-86
2022/07/09 04:36:05;;;;;;;0.98;0.93;;;;;;;;;;4975660;28;20182;-85
2022/07/09 04:38:33;;;;;;;1.67;1.52;;;;;;;;;;4975748;28;20122;-87
2022/07/09 04:40:58;;;;;;;1.98;1.67;;;;;;;;;;4973967;28;20101;-85
2022/07/09 04:43:24;;;;;;;0.55;0.55;;;;;;;;;;4973304;28;20118;-84
2022/07/09 04:45:50;;;;;;;1.25;1.10;;;;;;;;;;4976209;28;20030;-85
2022/07/09 04:48:15;;;;;;;1.13;1.00;;;;;;;;;;4974181;28;20110;-83
2022/07/09 04:50:45;;;;;;;0.90;0.90;;;;;;;;;;4957215;28;20039;-83
2022/07/09 04:53:10;;;;;;;0.60;0.60;;;;;;;;;;4975873;28;20030;-84
2022/07/09 04:55:36;;;;;;;0.60;0.60;;;;;;;;;;4974023;28;20077;-83
2022/07/09 04:58:01;;;;;;;0.80;0.80;;;;;;;;;;4975133;28;20088;-85
2022/07/09 05:00:27;;;;;;;1.13;0.95;;;;;;;;;;4967283;28;20069;-87
2022/07/09 05:02:52;;;;;;;1.90;1.58;;;;;;;;;;4978420;28;20034;-87
2022/07/09 05:05:22;;;;;;;1.05;1.00;;;;;;;;;;4975624;28;20023;-84
2022/07/09 05:07:47;;;;;;;0.65;0.65;;;;;;;;;;4958470;28;20437;-84
2022/07/09 05:10:15;;;;;;;1.67;1.20;;;;;;;;;;4977929;28;20050;-84
2022/07/09 05:12:40;;;;;;;2.67;1.27;;;;;;;;;;4975005;28;20062;-86
2022/07/09 05:15:06;;;;;;;2.30;1.67;;;;;;;;;;4978230;28;20027;-85
2022/07/09 05:17:36;;;;;;;1.48;0.60;;;;;;;;;;4974963;28;20090;-88
2022/07/09 05:20:06;;;;;;;1.00;0.88;;;;;;;;;;4973760;28;20443;-89
2022/07/09 05:22:32;;;;;;;1.25;1.15;;;;;;;;;;4965440;28;20038;-89
2022/07/09 05:25:03;;;;;;;3.22;1.17;;;;;;;;;;4972326;28;20026;-86
2022/07/09 05:27:31;;;;;;;1.17;0.68;;;;;;;;;;4974790;28;20031;-85
2022/07/09 05:29:58;;;;;;;1.55;1.27;;;;;;;;;;4971651;28;20448;-83
2022/07/09 05:32:24;;;;;;;3.15;1.63;;;;;;;;;;4975005;28;20058;-89
2022/07/09 05:34:49;;;;;;;1.00;0.75;;;;;;;;;;4977659;28;20054;-90
2022/07/09 05:37:19;;;;;;;1.73;0.95;;;;;;;;;;4982887;28;20058;-82
2022/07/09 05:39:44;;;;;;;2.15;0.77;;;;;;;;;;4982245;28;20400;-87
2022/07/09 05:42:12;;;;;;;0.40;0.40;;;;;;;;;;4979366;28;20050;-86
2022/07/09 05:44:40;;;;;;;1.40;1.02;;;;;;;;;;4976155;28;20031;-88
2022/07/09 05:47:05;;;;;;;0.70;0.68;;;;;;;;;;4968742;28;20031;-85
2022/07/09 05:49:31;;;;;;;2.85;1.13;;;;;;;;;;4966379;28;20440;-86
2022/07/09 05:51:57;;;;;;;0.77;0.68;;;;;;;;;;4970887;28;20352;-86
2022/07/09 05:54:22;;;;;;;3.45;1.65;;;;;;;;;;4967859;28;20033;-87
2022/07/09 05:56:47;;;;;;;10.30;1.27;;;;;;;;;;4972062;28;20488;-86
2022/07/09 05:59:17;;;;;;;2.05;1.30;;;;;;;;;;4973997;28;20176;-86
2022/07/09 06:01:43;;;;;;;1.42;1.17;;;;;;;;;;4961191;28;20024;-85
2022/07/09 06:04:11;;;;;;;1.63;0.95;;;;;;;;;;4965119;28;20057;-84
2022/07/09 06:06:36;;;;;;;1.55;0.77;;;;;;;;;;4970560;28;20031;-84
2022/07/09 06:09:02;;;;;;;0.63;0.63;;;;;;;;;;4971935;28;20026;-90
2022/07/09 06:11:32;;;;;;;0.70;0.70;;;;;;;;;;4969688;28;20310;-84
2022/07/09 06:13:57;;;;;;;0.88;0.70;;;;;;;;;;4974280;28;20031;-85
2022/07/09 06:16:25;;;;;;;1.17;0.90;;;;;;;;;;4974810;28;20114;-87
2022/07/09 06:18:52;;;;;;;0.40;0.40;;;;;;;;;;4973072;28;20023;-84
2022/07/09 06:21:18;;;;;;;0.13;0.13;;;;;;;;;;4973274;28;20089;-86
2022/07/09 06:23:44;;;;;;;1.55;0.60;;;;;;;;;;4976351;28;20389;-87
2022/07/09 06:26:09;;;;;;;1.20;0.50;;;;;;;;;;4979195;28;20046;-89
2022/07/09 06:28:40;;;;;;;0.85;0.85;;;;;;;;;;4978567;28;20037;-85
2022/07/09 06:31:05;;;;;;;4.43;1.33;;;;;;;;;;4976121;28;20455;-86
2022/07/09 06:33:34;;;;;;;1.40;1.02;;;;;;;;;;4979073;28;20030;-84
2022/07/09 06:35:59;;;;;;;0.10;0.10;;;;;;;;;;4975632;28;20046;-84
2022/07/09 06:38:27;;;;;;;0.20;0.20;;;;;;;;;;4976761;28;20018;-87
2022/07/09 06:40:54;;;;;;;1.60;0.38;;;;;;;;;;4971727;28;20034;-87
2022/07/09 06:43:24;;;;;;;0.32;0.28;;;;;;;;;;4968996;28;20074;-83
2022/07/09 06:45:49;;;;;;;0.40;0.40;;;;;;;;;;4976094;28;20022;-85
2022/07/09 06:48:17;;;;;;;2.00;0.50;;;;;;;;;;4977696;28;20185;-86
2022/07/09 06:50:45;;;;;;;0.47;0.47;;;;;;;;;;4976835;28;20081;-84
2022/07/09 06:53:10;;;;;;;1.10;0.68;;;;;;;;;;4978956;28;20125;-84
2022/07/09 06:55:36;;;;;;;1.10;0.93;;;;;;;;;;4978901;28;20086;-84
2022/07/09 06:58:01;;;;;;;1.45;0.68;;;;;;;;;;4976425;28;20534;-87
2022/07/09 07:00:26;;;;;;;5.53;0.93;;;;;;;;;;4978872;28;20621;-87
2022/07/09 07:02:59;;;;;;;0.80;0.50;;;;;;;;;;4976818;28;20093;-69
2022/07/09 07:05:24;;;;;;;;;;;;;;;;;;4991141;28;20038;-68
2022/07/09 07:07:52;;;;;;;0.77;0.77;;;;;;;;;;4976551;28;19925;-69
2022/07/09 07:10:17;;;;;;;0.50;0.50;;;;;;;;;;4969557;28;20160;-69
2022/07/09 07:12:42;;;;;;;1.98;0.82;;;;;;;;;;4973378;28;20122;-69
2022/07/09 07:15:08;;;;;;;1.55;0.47;;;;;;;;;;4976945;28;20615;-69
2022/07/09 07:17:33;;;;;;;0.20;0.20;;;;;;;;;;4960440;28;20441;-70
2022/07/09 07:19:59;;;;;;;0.65;0.65;;;;;;;;;;4984791;28;20022;-70
2022/07/09 07:22:24;;;;;;;0.30;0.30;;;;;;;;;;4975429;28;20322;-69
2022/07/09 07:24:52;;;;;;;0.50;0.50;;;;;;;;;;4974270;28;20102;-69
2022/07/09 07:27:17;;;;;;;0.30;0.30;;;;;;;;;;4973769;28;20066;-69
2022/07/09 07:29:47;;;;;;;0.38;0.38;;;;;;;;;;4977138;28;20062;-69
2022/07/09 07:32:14;;;;;;;1.05;0.50;;;;;;;;;;4977239;28;20058;-70
2022/07/09 07:34:42;;;;;;;0.63;0.50;;;;;;;;;;4978019;28;20023;-70
2022/07/09 07:37:07;;;;;;;0.20;0.20;;;;;;;;;;4985356;28;20027;-69
2022/07/09 07:39:33;;;;;;;1.73;0.57;;;;;;;;;;4959176;28;20027;-69
2022/07/09 07:41:58;;;;;;;0.55;0.52;;;;;;;;;;4960354;28;20034;-69
2022/07/09 07:44:26;;;;;;;0.52;0.52;;;;;;;;;;4977113;28;20027;-69
2022/07/09 07:46:51;;;;;;;0.22;0.22;;;;;;;;;;4976108;28;20357;-69
2022/07/09 07:49:17;;;;;;;0.50;0.50;;;;;;;;;;4976069;28;20093;-70
2022/07/09 07:51:45;;;;;;;0.50;0.30;;;;;;;;;;4976998;28;20026;-69
2022/07/09 07:54:11;;;;;;;0.30;0.30;;;;;;;;;;4975357;28;20205;-69
2022/07/09 07:56:39;;;;;;;0.35;0.28;;;;;;;;;;4976609;28;20461;-69
2022/07/09 07:59:05;;;;;;;0.40;0.40;;;;;;;;;;4969588;28;20030;-69
2022/07/09 08:01:32;;;;;;;0.40;0.40;;;;;;;;;;4976418;28;20469;-69
2022/07/09 08:03:58;;;;;;;1.00;0.52;;;;;;;;;;4976417;28;20715;-69
2022/07/09 08:06:23;;;;;;;0.43;0.43;;;;;;;;;;4976722;28;20035;-69
2022/07/09 08:08:53;;;;;;;0.47;0.47;;;;;;;;;;4976745;28;20031;-69
2022/07/09 08:11:19;;;;;;;0.22;0.20;;;;;;;;;;4976769;28;20031;-69
2022/07/09 08:13:47;;;;;;;0.93;0.52;;;;;;;;;;4976025;28;20014;-69
2022/07/09 08:16:14;;;;;;;1.20;0.68;;;;;;;;;;4976529;28;20054;-70
2022/07/09 08:18:39;;;;;;;1.13;0.55;;;;;;;;;;4974741;28;20568;-70
2022/07/09 08:21:05;;;;;;;2.08;0.68;;;;;;;;;;4976615;28;20031;-69
2022/07/09 08:23:30;;;;;;;0.75;0.60;;;;;;;;;;4974853;28;20330;-70
2022/07/09 08:25:55;;;;;;;0.63;0.52;;;;;;;;;;4976857;28;20082;-70
2022/07/09 08:28:23;;;;;;;2.08;0.77;;;;;;;;;;4975781;28;20046;-70
2022/07/09 08:30:48;;;;;;;1.08;0.82;;;;;;;;;;4972177;28;20030;-69
2022/07/09 08:33:16;;;;;;;0.00;0.00;;;;;;;;;;4976568;28;20448;-71
2022/07/09 08:35:44;;;;;;;1.52;0.57;;;;;;;;;;4975916;28;20031;-69
2022/07/09 08:38:09;;;;;;;0.65;0.55;;;;;;;;;;4976898;28;20077;-69
2022/07/09 08:40:38;;;;;;;1.25;0.35;;;;;;;;;;4974246;28;20460;-69
2022/07/09 08:43:04;;;;;;;0.60;0.30;;;;;;;;;;4974978;28;20030;-70
2022/07/09 08:45:30;;;;;;;0.40;0.25;;;;;;;;;;4975685;28;20082;-69
2022/07/09 08:47:55;;;;;;;0.47;0.43;;;;;;;;;;4974067;28;20041;-69
2022/07/09 08:50:24;;;;;;;0.03;0.03;;;;;;;;;;4974708;28;20026;-69
2022/07/09 08:52:51;;;;;;;0.13;0.13;;;;;;;;;;4974483;28;20142;-69
2022/07/09 08:55:16;;;;;;;2.95;0.80;;;;;;;;;;4976141;28;20023;-69
2022/07/09 08:57:42;;;;;;;0.52;0.43;;;;;;;;;;4975653;28;20045;-69
2022/07/09 09:00:10;;;;;;;0.25;0.25;;;;;;;;;;4974463;28;20034;-69
2022/07/09 09:02:38;;;;;;;0.13;0.13;;;;;;;;;;4974546;28;20031;-69
2022/07/09 09:05:17;;;;;;;0.50;0.30;;;;;;;;;;4975692;28;20492;-69
2022/07/09 09:07:43;;;;;;;0.70;0.47;;;;;;;;;;4971915;28;20027;-69
2022/07/09 09:10:20;;;;;;;21.67;0.90;;;;;;;;;;4959434;28;20035;-69
2022/07/09 09:12:45;;;;;;;0.85;0.30;;;;;;;;;;4957137;29;20027;-68
2022/07/09 09:15:11;;;;;;;0.22;0.22;;;;;;;;;;4977386;28;20034;-68
2022/07/09 09:17:43;;;;;;;0.17;0.17;;;;;;;;;;4976106;28;20061;-69
2022/07/09 09:20:15;;;;;;;0.20;0.20;;;;;;;;;;4973633;28;20045;-69
2022/07/09 09:22:44;;;;;;;;;;;;;;;;;;4976150;28;20022;-69
2022/07/09 09:25:15;;;;;;;0.35;0.35;;;;;;;;;;4973524;28;20324;-70
2022/07/09 09:27:55;;;;;;;1.00;0.88;;;;;;;;;;4975721;28;20045;-70
2022/07/09 09:30:21;;;;;;;2.28;0.73;;;;;;;;;;4957241;28;20400;-69
2022/07/09 09:33:01;;;;;;;1.17;0.70;;;;;;;;;;4958627;28;20022;-69
2022/07/09 09:35:28;;;;;;;4.18;0.65;;;;;;;;;;4974615;28;20018;-69
2022/07/09 09:37:56;;;;;;;0.57;0.50;;;;;;;;;;4974703;28;20031;-69
2022/07/09 09:40:24;;;;;;;1.50;0.60;;;;;;;;;;4974665;28;20054;-70
2022/07/09 09:42:49;;;;;;;0.30;0.30;;;;;;;;;;4972111;28;20046;-69
2022/07/09 09:45:18;;;;;;;0.25;0.10;;;;;;;;;;4971673;28;20018;-69
2022/07/09 09:47:50;;;;;;;0.30;0.30;;;;;;;;;;4966627;28;20516;-69
2022/07/09 09:50:20;;;;;;;0.22;0.20;;;;;;;;;;4965692;28;20033;-69
2022/07/09 09:52:50;;;;;;;0.55;0.30;;;;;;;;;;4968865;28;20038;-69
2022/07/09 09:55:25;;;;;;;7.22;4.65;;;;;;;;;;4965841;28;20031;-69
2022/07/09 09:57:54;;;;;;;1.25;1.10;;;;;;;;;;4973947;28;20031;-69
2022/07/09 10:00:19;;;;;;;0.25;0.25;;;;;;;;;;4976948;28;20062;-69
2022/07/09 10:02:46;;;;;;;7.97;1.05;;;;;;;;;;4954059;28;20070;-69
2022/07/09 10:05:12;;;;;;;0.20;0.13;;;;;;;;;;4975092;28;20114;-69
2022/07/09 10:07:38;;;;;;;0.38;0.35;;;;;;;;;;4973360;28;20447;-70
2022/07/09 10:10:06;;;;;;;0.20;0.20;;;;;;;;;;4971945;28;20022;-69
2022/07/09 10:12:35;;;;;;;2.38;0.35;;;;;;;;;;4973774;28;20026;-69
2022/07/09 10:15:00;;;;;;;0.15;0.13;;;;;;;;;;4978765;28;20019;-70
2022/07/09 10:17:26;;;;;;;0.05;0.05;;;;;;;;;;4978293;28;20042;-69
2022/07/09 10:19:56;;;;;;;0.75;0.30;;;;;;;;;;4959978;28;20130;-69
2022/07/09 10:22:33;;;;;;;1.55;0.68;;;;;;;;;;4973806;28;20030;-70
2022/07/09 10:25:08;;;;;;;1.20;0.57;;;;;;;;;;4976312;28;20043;-70
2022/07/09 10:27:44;;;;;;;0.28;0.28;;;;;;;;;;4978386;28;20024;-70
2022/07/09 10:30:31;;;;;;;0.40;0.40;;;;;;;;;;4972379;28;20434;-70
2022/07/09 10:33:16;;;;;;;0.98;0.68;;;;;;;;;;4976731;28;20036;-71
2022/07/09 10:35:42;;;;;;;0.55;0.30;;;;;;;;;;4956991;28;20457;-70
2022/07/09 10:38:08;;;;;;;1.25;0.80;;;;;;;;;;4974698;28;20085;-71
2022/07/09 10:40:45;;;;;;;1.10;0.90;;;;;;;;;;4978102;28;20407;-71
2022/07/09 10:43:14;;;;;;;4.03;0.85;;;;;;;;;;4976195;28;20042;-72
2022/07/09 10:45:40;;;;;;;0.35;0.35;;;;;;;;;;4974514;28;20452;-72
2022/07/09 10:48:09;;;;;;;1.52;0.50;;;;;;;;;;4975294;28;20041;-72
2022/07/09 10:50:43;;;;;;;0.65;0.43;;;;;;;;;;4976309;28;20082;-72
2022/07/09 10:53:12;;;;;;;7.22;0.70;;;;;;;;;;4974504;28;20030;-71
2022/07/09 10:55:44;;;;;;;0.20;0.20;;;;;;;;;;4977154;28;20038;-71
2022/07/09 10:58:23;;;;;;;;;;;;;;;;;;4978912;28;20019;-71
2022/07/09 11:00:59;;;;;;;0.40;0.40;;;;;;;;;;4976391;28;19910;-70
2022/07/09 11:03:29;;;;;;;2.10;0.63;;;;;;;;;;4977277;28;20456;-72
2022/07/09 11:06:00;;;;;;;0.57;0.57;;;;;;;;;;4967623;28;20038;-71
2022/07/09 11:08:25;;;;;;;1.63;1.38;;;;;;;;;;4977072;28;20034;-71
2022/07/09 11:10:51;;;;;;;0.70;0.70;;;;;;;;;;4976001;28;20098;-73
2022/07/09 11:13:23;;;;;;;1.25;0.65;;;;;;;;;;4976560;28;20038;-71
2022/07/09 11:15:48;;;;;;;9.68;0.88;;;;;;;;;;4975337;28;20093;-72
2022/07/09 11:18:13;;;;;;;0.90;0.55;;;;;;;;;;4977629;28;20109;-71
2022/07/09 11:20:50;;;;;;;3.53;1.27;;;;;;;;;;4974957;28;20086;-71
2022/07/09 11:23:16;;;;;;;2.00;0.90;;;;;;;;;;4967586;28;20176;-71
2022/07/09 11:25:47;;;;;;;0.32;0.30;;;;;;;;;;4977648;28;20102;-70
2022/07/09 11:28:22;;;;;;;0.75;0.55;;;;;;;;;;4975039;28;20027;-72
2022/07/09 11:31:07;;;;;;;0.60;0.57;;;;;;;;;;4971802;28;20042;-72
2022/07/09 11:36:36;;;;;;;4.68;1.92;;;;;;;;;;4974561;28;20444;-71
2022/07/09 11:39:01;;;;;;;13.25;0.93;;;;;;;;;;4954188;28;20035;-71
2022/07/09 11:41:26;;;;;;;3.05;1.90;;;;;;;;;;4975173;28;20073;-70
2022/07/09 11:43:52;;;;;;;7.32;2.58;;;;;;;;;;4955590;28;20119;-70
2022/07/09 11:46:21;;;;;;;0.30;0.30;;;;;;;;;;4972206;28;20042;-70
2022/07/09 11:48:54;;;;;;;5.50;1.90;;;;;;;;;;4974515;28;20031;-71
2022/07/09 11:51:31;;;;;;;0.10;0.10;;;;;;;;;;4972434;28;20401;-70
2022/07/09 11:53:56;;;;;;;0.85;0.10;;;;;;;;;;4976127;28;20054;-70
2022/07/09 11:56:23;;;;;;;0.98;0.32;;;;;;;;;;4973507;28;20068;-71
2022/07/09 11:58:52;;;;;;;0.17;0.17;;;;;;;;;;4962327;28;20369;-71
2022/07/09 12:01:29;;;;;;;3.72;0.40;;;;;;;;;;4969335;28;20441;-70
2022/07/09 12:03:57;;;;;;;0.57;0.30;;;;;;;;;;4975717;28;20518;-72
2022/07/09 12:06:25;;;;;;;1.08;0.88;;;;;;;;;;4973153;28;20424;-70
2022/07/09 12:09:01;;;;;;;0.35;0.35;;;;;;;;;;4973024;28;20061;-70
2022/07/09 12:11:32;;;;;;;0.32;0.32;;;;;;;;;;4974660;28;20133;-71
2022/07/09 12:14:00;;;;;;;0.30;0.30;;;;;;;;;;4957668;28;20364;-71
2022/07/09 12:16:30;;;;;;;0.38;0.30;;;;;;;;;;4973766;28;20030;-70
2022/07/09 12:18:58;;;;;;;1.13;0.77;;;;;;;;;;4975678;28;20035;-71
2022/07/09 12:21:23;;;;;;;0.43;0.38;;;;;;;;;;4976140;28;20035;-71
2022/07/09 12:23:49;;;;;;;0.65;0.65;;;;;;;;;;4976625;28;20027;-71
2022/07/09 12:26:16;;;;;;;0.40;0.38;;;;;;;;;;4974838;28;20034;-70
2022/07/09 12:28:42;;;;;;;0.43;0.38;;;;;;;;;;4976005;28;20038;-71
2022/07/09 12:31:07;;;;;;;0.50;0.50;;;;;;;;;;4974648;28;20045;-71
2022/07/09 12:33:35;;;;;;;0.50;0.50;;;;;;;;;;4976473;28;20031;-73
2022/07/09 12:36:02;;;;;;;0.55;0.55;;;;;;;;;;4971128;28;20448;-71
2022/07/09 12:38:27;;;;;;;1.48;1.10;;;;;;;;;;4970267;28;20031;-70
2022/07/09 12:40:55;;;;;;;2.50;0.80;;;;;;;;;;4976443;28;20025;-69
2022/07/09 12:43:22;;;;;;;0.63;0.60;;;;;;;;;;4961699;28;20121;-70
2022/07/09 12:45:48;;;;;;;0.50;0.50;;;;;;;;;;4973263;28;20445;-70
2022/07/09 12:48:13;;;;;;;1.90;0.55;;;;;;;;;;4973757;28;20035;-70
2022/07/09 12:50:38;;;;;;;0.45;0.45;;;;;;;;;;4971823;28;20031;-70
2022/07/09 12:53:04;;;;;;;1.08;0.50;;;;;;;;;;4975708;28;20053;-69
2022/07/09 12:55:29;;;;;;;0.95;0.95;;;;;;;;;;4974312;28;20047;-69
2022/07/09 12:58:05;;;;;;;0.47;0.32;;;;;;;;;;4974503;28;20030;-70
2022/07/09 13:00:33;;;;;;;0.65;0.65;;;;;;;;;;4954709;28;20106;-70
2022/07/09 13:03:00;;;;;;;1.33;0.85;;;;;;;;;;4968618;28;20658;-69
2022/07/09 13:05:25;;;;;;;0.80;0.40;;;;;;;;;;4972690;28;20086;-71
2022/07/09 13:07:51;;;;;;;1.05;1.05;;;;;;;;;;4968046;28;20034;-70
2022/07/09 13:10:16;;;;;;;0.88;0.82;;;;;;;;;;4975693;28;20472;-69
2022/07/09 13:12:42;;;;;;;1.42;1.33;;;;;;;;;;4975946;28;20102;-70
2022/07/09 13:15:07;;;;;;;0.88;0.70;;;;;;;;;;4976053;28;20018;-69
2022/07/09 13:17:33;;;;;;;1.50;1.30;;;;;;;;;;4975595;28;20337;-70
2022/07/09 13:20:00;;;;;;;1.33;1.02;;;;;;;;;;4975731;28;20085;-70
2022/07/09 13:22:26;;;;;;;0.93;0.60;;;;;;;;;;4973270;28;20018;-69
2022/07/09 13:24:52;;;;;;;1.67;1.17;;;;;;;;;;4975329;28;20058;-69
2022/07/09 13:27:18;;;;;;;1.23;0.77;;;;;;;;;;4975651;28;20057;-70
2022/07/09 13:29:46;;;;;;;2.72;1.13;;;;;;;;;;4975948;28;20476;-70
2022/07/09 13:32:13;;;;;;;0.60;0.60;;;;;;;;;;4975173;28;20023;-69
2022/07/09 13:34:41;;;;;;;1.05;0.93;;;;;;;;;;4974284;28;20456;-70
2022/07/09 13:37:07;;;;;;;1.10;0.82;;;;;;;;;;4975206;28;20467;-70
2022/07/09 13:39:34;;;;;;;2.08;0.45;;;;;;;;;;4974830;28;20125;-70
2022/07/09 13:42:00;;;;;;;0.73;0.73;;;;;;;;;;4975575;28;20395;-69
2022/07/09 13:44:25;;;;;;;0.80;0.63;;;;;;;;;;4975392;28;20019;-70
2022/07/09 13:46:54;;;;;;;3.22;1.08;;;;;;;;;;4973099;28;20217;-70
2022/07/09 13:49:19;;;;;;;1.25;0.80;;;;;;;;;;4965913;28;20464;-71
2022/07/09 13:51:47;;;;;;;0.93;0.80;;;;;;;;;;4970502;28;20041;-69
2022/07/09 13:54:12;;;;;;;2.25;1.23;;;;;;;;;;4973475;28;20113;-69
2022/07/09 13:56:42;;;;;;;0.90;0.80;;;;;;;;;;4973636;28;20177;-69
2022/07/09 13:59:07;;;;;;;0.52;0.52;;;;;;;;;;4972229;28;21486;-71
2022/07/09 14:01:33;;;;;;;0.55;0.55;;;;;;;;;;4973361;28;20037;-72
2022/07/09 14:03:58;;;;;;;7.75;2.05;;;;;;;;;;4974731;28;20077;-74
2022/07/09 14:06:24;;;;;;;5.20;1.40;;;;;;;;;;4973155;28;20034;-72
2022/07/09 14:08:49;;;;;;;0.52;0.52;;;;;;;;;;4975260;28;20360;-73
2022/07/09 14:11:15;;;;;;;1.73;0.85;;;;;;;;;;4974884;28;20026;-73
2022/07/09 14:13:42;;;;;;;1.52;0.82;;;;;;;;;;4971526;28;20026;-74
2022/07/09 14:16:07;;;;;;;0.70;0.70;;;;;;;;;;4973082;28;20026;-74
2022/07/09 14:18:33;;;;;;;1.48;1.02;;;;;;;;;;4974350;28;20029;-74
2022/07/09 14:20:58;;;;;;;1.65;0.95;;;;;;;;;;4971191;28;20022;-74
2022/07/09 14:23:23;;;;;;;0.63;0.63;;;;;;;;;;4973681;28;20427;-74
2022/07/09 14:25:49;;;;;;;0.43;0.40;;;;;;;;;;4974986;28;20544;-75
2022/07/09 14:28:17;;;;;;;0.77;0.60;;;;;;;;;;4973397;28;20035;-74
2022/07/09 14:30:42;;;;;;;1.75;0.50;;;;;;;;;;4973157;28;20471;-75
2022/07/09 14:33:10;;;;;;;0.40;0.40;;;;;;;;;;4974991;28;20038;-74
2022/07/09 14:35:35;;;;;;;0.77;0.57;;;;;;;;;;4974471;28;20018;-74
2022/07/09 14:38:03;;;;;;;1.75;0.47;;;;;;;;;;4974650;28;20117;-74
2022/07/09 14:40:29;;;;;;;0.50;0.32;;;;;;;;;;4973204;28;20365;-74
2022/07/09 14:42:56;;;;;;;1.42;1.10;;;;;;;;;;4971578;28;20030;-74
2022/07/09 14:45:25;;;;;;;3.38;1.77;;;;;;;;;;4959177;28;20487;-74
2022/07/09 14:47:51;;;;;;;2.08;1.33;;;;;;;;;;4977053;28;20547;-75